Station Historical Data
Daily Summary for March 30, 2017 Units:  Both    English   Metric
« Previous Day
Next Day »
Daily Weekly Monthly Yearly Custom
  High: Low: Average:
Temperature: 42.5 °F /  5.8 °C 33.5 °F /  0.8 °C 37.7 °F /  3.2 °C
Dew Point: 35.0 °F /  1.7 °C 24.7 °F /  -4.1 °C 29.8 °F /  -1.2 °C
Humidity: 90% 55% 74%
Wind Speed: 13.0mph /  20.9km/h - 4.8mph /  7.7km/h
Wind Gust: 19.0mph /  30.6km/h - -
Wind- - ENE
Pressure: 30.30 in /  1026 hPa 29.84 in /  1010.4 hPa -
Precipitation: 0.27 in /  6.86 mm    
Historical Graphs
 
 
Tabular Data for March 30, 2017
Time Temperature Dew Point Pressure Wind Wind Speed Wind Gust Humidity Rainfall Rate (Hourly)
00:04 37.8 °F /  3.2 °C 28.2 °F /  -2.1 °C 30.25in /  1024.3hPa East 3.0mph /  4.8km/h 7.0mph /  11.3km/h 68% 0.00in /  0mm
00:09 37.9 °F /  3.3 °C 28.3 °F /  -2.1 °C 30.25in /  1024.3hPa East 3.0mph /  4.8km/h 7.0mph /  11.3km/h 68% 0.00in /  0mm
00:14 37.8 °F /  3.2 °C 28.2 °F /  -2.1 °C 30.25in /  1024.3hPa East 3.0mph /  4.8km/h 8.0mph /  12.9km/h 68% 0.00in /  0mm
00:19 37.7 °F /  3.2 °C 28.1 °F /  -2.2 °C 30.25in /  1024.3hPa East 3.0mph /  4.8km/h 8.0mph /  12.9km/h 68% 0.00in /  0mm
00:24 37.6 °F /  3.1 °C 28.0 °F /  -2.2 °C 30.24in /  1023.9hPa East 3.0mph /  4.8km/h 8.0mph /  12.9km/h 68% 0.00in /  0mm
00:29 37.5 °F /  3.1 °C 27.9 °F /  -2.3 °C 30.24in /  1023.9hPa ENE 3.0mph /  4.8km/h 8.0mph /  12.9km/h 68% 0.00in /  0mm
00:34 37.4 °F /  3 °C 27.8 °F /  -2.3 °C 30.25in /  1024.3hPa ESE 3.0mph /  4.8km/h 5.0mph /  8km/h 68% 0.00in /  0mm
00:39 37.1 °F /  2.8 °C 27.5 °F /  -2.5 °C 30.25in /  1024.3hPa East 2.0mph /  3.2km/h 5.0mph /  8km/h 68% 0.00in /  0mm
00:44 37.0 °F /  2.8 °C 27.8 °F /  -2.3 °C 30.25in /  1024.3hPa ENE 1.0mph /  1.6km/h 7.0mph /  11.3km/h 69% 0.00in /  0mm
00:49 36.8 °F /  2.7 °C 27.6 °F /  -2.4 °C 30.25in /  1024.3hPa East 2.0mph /  3.2km/h 7.0mph /  11.3km/h 69% 0.00in /  0mm
00:54 36.6 °F /  2.6 °C 27.4 °F /  -2.6 °C 30.25in /  1024.3hPa East 2.0mph /  3.2km/h 5.0mph /  8km/h 69% 0.00in /  0mm
00:59 36.5 °F /  2.5 °C 27.6 °F /  -2.4 °C 30.25in /  1024.3hPa ENE 2.0mph /  3.2km/h 5.0mph /  8km/h 70% 0.00in /  0mm
01:04 36.4 °F /  2.4 °C 27.5 °F /  -2.5 °C 30.25in /  1024.3hPa ENE 1.0mph /  1.6km/h 5.0mph /  8km/h 70% 0.00in /  0mm
01:09 36.3 °F /  2.4 °C 27.4 °F /  -2.6 °C 30.25in /  1024.3hPa Calm   2.0mph /  3.2km/h 70% 0.00in /  0mm
01:14 36.0 °F /  2.2 °C 27.5 °F /  -2.5 °C 30.26in /  1024.6hPa Calm     71% 0.00in /  0mm
01:19 35.8 °F /  2.1 °C 27.3 °F /  -2.6 °C 30.26in /  1024.6hPa Calm   2.0mph /  3.2km/h 71% 0.00in /  0mm
01:24 35.7 °F /  2.1 °C 27.6 °F /  -2.4 °C 30.27in /  1024.9hPa Calm   2.0mph /  3.2km/h 72% 0.00in /  0mm
01:29 35.6 °F /  2 °C 27.5 °F /  -2.5 °C 30.27in /  1024.9hPa Calm   2.0mph /  3.2km/h 72% 0.00in /  0mm
01:34 35.4 °F /  1.9 °C 27.3 °F /  -2.6 °C 30.28in /  1025.3hPa Calm     72% 0.00in /  0mm
01:39 35.3 °F /  1.8 °C 27.2 °F /  -2.7 °C 30.28in /  1025.3hPa Calm   1.0mph /  1.6km/h 72% 0.00in /  0mm
01:44 35.3 °F /  1.8 °C 27.2 °F /  -2.7 °C 30.28in /  1025.3hPa Calm     72% 0.00in /  0mm
01:49 34.9 °F /  1.6 °C 27.1 °F /  -2.7 °C 30.29in /  1025.6hPa Calm     73% 0.00in /  0mm
01:54 34.6 °F /  1.4 °C 26.8 °F /  -2.9 °C 30.28in /  1025.3hPa Calm     73% 0.00in /  0mm
01:59 34.4 °F /  1.3 °C 27.0 °F /  -2.8 °C 30.28in /  1025.3hPa Calm     74% 0.00in /  0mm
02:04 34.4 °F /  1.3 °C 27.0 °F /  -2.8 °C 30.29in /  1025.6hPa Calm     74% 0.00in /  0mm
02:09 34.1 °F /  1.2 °C 26.7 °F /  -2.9 °C 30.29in /  1025.6hPa Calm     74% 0.00in /  0mm
02:14 33.8 °F /  1 °C 27.0 °F /  -2.8 °C 30.28in /  1025.3hPa Calm   1.0mph /  1.6km/h 76% 0.00in /  0mm
02:19 34.0 °F /  1.1 °C 27.2 °F /  -2.7 °C 30.28in /  1025.3hPa Calm     76% 0.00in /  0mm
02:24 33.9 °F /  1.1 °C 26.8 °F /  -2.9 °C 30.28in /  1025.3hPa Calm     75% 0.00in /  0mm
02:29 33.5 °F /  0.8 °C 26.7 °F /  -2.9 °C 30.28in /  1025.3hPa Calm     76% 0.00in /  0mm
02:34 33.9 °F /  1.1 °C 27.4 °F /  -2.6 °C 30.28in /  1025.3hPa ENE 2.0mph /  3.2km/h 2.0mph /  3.2km/h 77% 0.00in /  0mm
02:39 34.6 °F /  1.4 °C 27.8 °F /  -2.3 °C 30.28in /  1025.3hPa NE 1.0mph /  1.6km/h 4.0mph /  6.4km/h 76% 0.00in /  0mm
02:44 34.6 °F /  1.4 °C 27.8 °F /  -2.3 °C 30.28in /  1025.3hPa NNE 2.0mph /  3.2km/h 3.0mph /  4.8km/h 76% 0.00in /  0mm
02:49 34.9 °F /  1.6 °C 27.8 °F /  -2.3 °C 30.28in /  1025.3hPa NE 3.0mph /  4.8km/h 3.0mph /  4.8km/h 75% 0.00in /  0mm
02:54 35.0 °F /  1.7 °C 27.5 °F /  -2.5 °C 30.28in /  1025.3hPa NE 2.0mph /  3.2km/h 3.0mph /  4.8km/h 74% 0.00in /  0mm
02:59 35.0 °F /  1.7 °C 27.5 °F /  -2.5 °C 30.28in /  1025.3hPa NE 1.0mph /  1.6km/h 3.0mph /  4.8km/h 74% 0.00in /  0mm
03:04 35.2 °F /  1.8 °C 27.7 °F /  -2.4 °C 30.28in /  1025.3hPa NE 1.0mph /  1.6km/h 5.0mph /  8km/h 74% 0.00in /  0mm
03:09 35.4 °F /  1.9 °C 27.6 °F /  -2.4 °C 30.28in /  1025.3hPa NE 2.0mph /  3.2km/h 5.0mph /  8km/h 73% 0.00in /  0mm
03:14 35.6 °F /  2 °C 27.8 °F /  -2.3 °C 30.29in /  1025.6hPa Calm   3.0mph /  4.8km/h 73% 0.00in /  0mm
03:19 35.5 °F /  1.9 °C 27.7 °F /  -2.4 °C 30.30in /  1026hPa NE 3.0mph /  4.8km/h 3.0mph /  4.8km/h 73% 0.00in /  0mm
03:24 35.7 °F /  2.1 °C 27.9 °F /  -2.3 °C 30.30in /  1026hPa NE 2.0mph /  3.2km/h 5.0mph /  8km/h 73% 0.00in /  0mm
03:29 35.8 °F /  2.1 °C 28.0 °F /  -2.2 °C 30.30in /  1026hPa NE 3.0mph /  4.8km/h 6.0mph /  9.7km/h 73% 0.00in /  0mm
03:34 35.9 °F /  2.2 °C 28.1 °F /  -2.2 °C 30.30in /  1026hPa NE 2.0mph /  3.2km/h 6.0mph /  9.7km/h 73% 0.00in /  0mm
03:39 35.9 °F /  2.2 °C 28.1 °F /  -2.2 °C 30.30in /  1026hPa NE 2.0mph /  3.2km/h 6.0mph /  9.7km/h 73% 0.00in /  0mm
03:44 36.0 °F /  2.2 °C 27.8 °F /  -2.3 °C 30.30in /  1026hPa NE 5.0mph /  8km/h 6.0mph /  9.7km/h 72% 0.00in /  0mm
03:49 36.1 °F /  2.3 °C 27.9 °F /  -2.3 °C 30.29in /  1025.6hPa NE 3.0mph /  4.8km/h 8.0mph /  12.9km/h 72% 0.00in /  0mm
03:54 36.0 °F /  2.2 °C 27.8 °F /  -2.3 °C 30.29in /  1025.6hPa NE 4.0mph /  6.4km/h 8.0mph /  12.9km/h 72% 0.00in /  0mm
03:59 36.0 °F /  2.2 °C 28.2 °F /  -2.1 °C 30.29in /  1025.6hPa NE 4.0mph /  6.4km/h 8.0mph /  12.9km/h 73% 0.00in /  0mm
04:04 35.9 °F /  2.2 °C 27.7 °F /  -2.4 °C 30.29in /  1025.6hPa NE 5.0mph /  8km/h 10.0mph /  16.1km/h 72% 0.00in /  0mm
04:09 35.9 °F /  2.2 °C 27.7 °F /  -2.4 °C 30.29in /  1025.6hPa NE 5.0mph /  8km/h 10.0mph /  16.1km/h 72% 0.00in /  0mm
04:14 35.8 °F /  2.1 °C 27.7 °F /  -2.4 °C 30.29in /  1025.6hPa NE 9.0mph /  14.5km/h 10.0mph /  16.1km/h 72% 0.00in /  0mm
04:19 35.8 °F /  2.1 °C 27.7 °F /  -2.4 °C 30.29in /  1025.6hPa NE 5.0mph /  8km/h 11.0mph /  17.7km/h 72% 0.00in /  0mm
04:24 35.7 °F /  2.1 °C 27.6 °F /  -2.4 °C 30.28in /  1025.3hPa NE 6.0mph /  9.7km/h 11.0mph /  17.7km/h 72% 0.00in /  0mm
04:29 35.7 °F /  2.1 °C 27.6 °F /  -2.4 °C 30.27in /  1024.9hPa ENE 11.0mph /  17.7km/h 11.0mph /  17.7km/h 72% 0.00in /  0mm
04:34 35.6 °F /  2 °C 27.5 °F /  -2.5 °C 30.28in /  1025.3hPa NE 7.0mph /  11.3km/h 13.0mph /  20.9km/h 72% 0.00in /  0mm
04:39 35.5 °F /  1.9 °C 27.4 °F /  -2.6 °C 30.27in /  1024.9hPa NE 3.0mph /  4.8km/h 9.0mph /  14.5km/h 72% 0.00in /  0mm
04:44 35.5 °F /  1.9 °C 27.7 °F /  -2.4 °C 30.27in /  1024.9hPa NE 5.0mph /  8km/h 8.0mph /  12.9km/h 73% 0.00in /  0mm
04:49 35.5 °F /  1.9 °C 27.7 °F /  -2.4 °C 30.27in /  1024.9hPa NE 2.0mph /  3.2km/h 9.0mph /  14.5km/h 73% 0.00in /  0mm
04:54 35.5 °F /  1.9 °C 27.7 °F /  -2.4 °C 30.27in /  1024.9hPa ENE 4.0mph /  6.4km/h 9.0mph /  14.5km/h 73% 0.00in /  0mm
04:59 35.5 °F /  1.9 °C 27.7 °F /  -2.4 °C 30.26in /  1024.6hPa ENE 4.0mph /  6.4km/h 10.0mph /  16.1km/h 73% 0.00in /  0mm
05:04 35.4 °F /  1.9 °C 27.6 °F /  -2.4 °C 30.26in /  1024.6hPa ENE 4.0mph /  6.4km/h 10.0mph /  16.1km/h 73% 0.00in /  0mm
05:09 35.4 °F /  1.9 °C 27.6 °F /  -2.4 °C 30.26in /  1024.6hPa ENE 4.0mph /  6.4km/h 9.0mph /  14.5km/h 73% 0.00in /  0mm
05:14 35.5 °F /  1.9 °C 27.7 °F /  -2.4 °C 30.26in /  1024.6hPa ENE 4.0mph /  6.4km/h 9.0mph /  14.5km/h 73% 0.00in /  0mm
05:19 35.4 °F /  1.9 °C 27.6 °F /  -2.4 °C 30.25in /  1024.3hPa ENE 4.0mph /  6.4km/h 10.0mph /  16.1km/h 73% 0.00in /  0mm
05:24 35.4 °F /  1.9 °C 27.6 °F /  -2.4 °C 30.25in /  1024.3hPa ENE 2.0mph /  3.2km/h 11.0mph /  17.7km/h 73% 0.00in /  0mm
05:29 35.5 °F /  1.9 °C 27.4 °F /  -2.6 °C 30.25in /  1024.3hPa NE 6.0mph /  9.7km/h 13.0mph /  20.9km/h 72% 0.00in /  0mm
05:34 35.5 °F /  1.9 °C 27.4 °F /  -2.6 °C 30.25in /  1024.3hPa NNE 6.0mph /  9.7km/h 10.0mph /  16.1km/h 72% 0.00in /  0mm
05:39 35.5 °F /  1.9 °C 27.4 °F /  -2.6 °C 30.25in /  1024.3hPa SE 3.0mph /  4.8km/h 9.0mph /  14.5km/h 72% 0.00in /  0mm
05:44 35.5 °F /  1.9 °C 27.4 °F /  -2.6 °C 30.25in /  1024.3hPa NNE 4.0mph /  6.4km/h 9.0mph /  14.5km/h 72% 0.00in /  0mm
05:49 35.5 °F /  1.9 °C 27.4 °F /  -2.6 °C 30.25in /  1024.3hPa ENE 4.0mph /  6.4km/h 9.0mph /  14.5km/h 72% 0.00in /  0mm
05:54 35.5 °F /  1.9 °C 27.7 °F /  -2.4 °C 30.26in /  1024.6hPa ENE 4.0mph /  6.4km/h 8.0mph /  12.9km/h 73% 0.00in /  0mm
05:59 35.4 °F /  1.9 °C 27.6 °F /  -2.4 °C 30.26in /  1024.6hPa ENE 4.0mph /  6.4km/h 10.0mph /  16.1km/h 73% 0.00in /  0mm
06:04 35.4 °F /  1.9 °C 27.6 °F /  -2.4 °C 30.25in /  1024.3hPa ENE 4.0mph /  6.4km/h 10.0mph /  16.1km/h 73% 0.00in /  0mm
06:09 35.5 °F /  1.9 °C 27.4 °F /  -2.6 °C 30.25in /  1024.3hPa NE 2.0mph /  3.2km/h 11.0mph /  17.7km/h 72% 0.00in /  0mm
06:14 35.5 °F /  1.9 °C 27.4 °F /  -2.6 °C 30.26in /  1024.6hPa East 3.0mph /  4.8km/h 11.0mph /  17.7km/h 72% 0.00in /  0mm
06:19 35.5 °F /  1.9 °C 27.0 °F /  -2.8 °C 30.25in /  1024.3hPa ENE 4.0mph /  6.4km/h 11.0mph /  17.7km/h 71% 0.00in /  0mm
06:24 35.5 °F /  1.9 °C 26.7 °F /  -2.9 °C 30.25in /  1024.3hPa ENE 5.0mph /  8km/h 11.0mph /  17.7km/h 70% 0.00in /  0mm
06:29 35.6 °F /  2 °C 26.4 °F /  -3.1 °C 30.25in /  1024.3hPa ENE 5.0mph /  8km/h 11.0mph /  17.7km/h 69% 0.00in /  0mm
06:34 35.6 °F /  2 °C 26.1 °F /  -3.3 °C 30.25in /  1024.3hPa East 5.0mph /  8km/h 12.0mph /  19.3km/h 68% 0.00in /  0mm
06:39 35.6 °F /  2 °C 25.7 °F /  -3.5 °C 30.25in /  1024.3hPa ESE 8.0mph /  12.9km/h 13.0mph /  20.9km/h 67% 0.00in /  0mm
06:44 35.5 °F /  1.9 °C 25.3 °F /  -3.7 °C 30.24in /  1023.9hPa ENE 2.0mph /  3.2km/h 15.0mph /  24.1km/h 66% 0.00in /  0mm
06:49 35.5 °F /  1.9 °C 25.3 °F /  -3.7 °C 30.25in /  1024.3hPa East 5.0mph /  8km/h 9.0mph /  14.5km/h 66% 0.00in /  0mm
06:54 35.4 °F /  1.9 °C 25.2 °F /  -3.8 °C 30.25in /  1024.3hPa ENE 4.0mph /  6.4km/h 10.0mph /  16.1km/h 66% 0.00in /  0mm
06:59 35.4 °F /  1.9 °C 24.8 °F /  -4 °C 30.24in /  1023.9hPa ENE 5.0mph /  8km/h 12.0mph /  19.3km/h 65% 0.00in /  0mm
07:04 35.3 °F /  1.8 °C 24.7 °F /  -4.1 °C 30.24in /  1023.9hPa ENE 5.0mph /  8km/h 12.0mph /  19.3km/h 65% 0.00in /  0mm
07:09 35.4 °F /  1.9 °C 25.2 °F /  -3.8 °C 30.25in /  1024.3hPa NNE 4.0mph /  6.4km/h 7.0mph /  11.3km/h 66% 0.00in /  0mm
07:14 35.5 °F /  1.9 °C 24.9 °F /  -3.9 °C 30.24in /  1023.9hPa NNE 13.0mph /  20.9km/h 13.0mph /  20.9km/h 65% 0.00in /  0mm
07:19 35.6 °F /  2 °C 25.0 °F /  -3.9 °C 30.24in /  1023.9hPa East 3.0mph /  4.8km/h 13.0mph /  20.9km/h 65% 0.00in /  0mm
07:24 35.5 °F /  1.9 °C 24.9 °F /  -3.9 °C 30.24in /  1023.9hPa ENE 5.0mph /  8km/h 13.0mph /  20.9km/h 65% 0.00in /  0mm
07:29 35.6 °F /  2 °C 25.0 °F /  -3.9 °C 30.24in /  1023.9hPa East 4.0mph /  6.4km/h 11.0mph /  17.7km/h 65% 0.00in /  0mm
07:34 35.6 °F /  2 °C 25.0 °F /  -3.9 °C 30.25in /  1024.3hPa ENE 1.0mph /  1.6km/h 13.0mph /  20.9km/h 65% 0.00in /  0mm
07:39 35.6 °F /  2 °C 25.0 °F /  -3.9 °C 30.25in /  1024.3hPa ENE 4.0mph /  6.4km/h 11.0mph /  17.7km/h 65% 0.00in /  0mm
07:44 35.6 °F /  2 °C 25.0 °F /  -3.9 °C 30.24in /  1023.9hPa ESE 5.0mph /  8km/h 8.0mph /  12.9km/h 65% 0.00in /  0mm
07:49 35.6 °F /  2 °C 25.0 °F /  -3.9 °C 30.24in /  1023.9hPa East 5.0mph /  8km/h 13.0mph /  20.9km/h 65% 0.00in /  0mm
07:54 35.7 °F /  2.1 °C 25.4 °F /  -3.7 °C 30.24in /  1023.9hPa ENE 4.0mph /  6.4km/h 13.0mph /  20.9km/h 66% 0.00in /  0mm
07:59 35.7 °F /  2.1 °C 25.4 °F /  -3.7 °C 30.24in /  1023.9hPa ENE 4.0mph /  6.4km/h 11.0mph /  17.7km/h 66% 0.00in /  0mm
08:04 35.6 °F /  2 °C 25.4 °F /  -3.7 °C 30.24in /  1023.9hPa ENE 4.0mph /  6.4km/h 11.0mph /  17.7km/h 66% 0.00in /  0mm
08:09 35.6 °F /  2 °C 25.4 °F /  -3.7 °C 30.24in /  1023.9hPa East 5.0mph /  8km/h 14.0mph /  22.5km/h 66% 0.00in /  0mm
08:14 35.7 °F /  2.1 °C 25.4 °F /  -3.7 °C 30.25in /  1024.3hPa East 5.0mph /  8km/h 10.0mph /  16.1km/h 66% 0.00in /  0mm
08:19 35.7 °F /  2.1 °C 25.4 °F /  -3.7 °C 30.25in /  1024.3hPa NE 3.0mph /  4.8km/h 11.0mph /  17.7km/h 66% 0.00in /  0mm
08:24 35.8 °F /  2.1 °C 25.2 °F /  -3.8 °C 30.25in /  1024.3hPa East 2.0mph /  3.2km/h 7.0mph /  11.3km/h 65% 0.00in /  0mm
08:29 35.9 °F /  2.2 °C 25.3 °F /  -3.7 °C 30.24in /  1023.9hPa ENE 4.0mph /  6.4km/h 9.0mph /  14.5km/h 65% 0.00in /  0mm
08:34 36.0 °F /  2.2 °C 25.4 °F /  -3.7 °C 30.24in /  1023.9hPa East 4.0mph /  6.4km/h 10.0mph /  16.1km/h 65% 0.00in /  0mm
08:39 36.1 °F /  2.3 °C 25.5 °F /  -3.6 °C 30.23in /  1023.6hPa East 6.0mph /  9.7km/h 11.0mph /  17.7km/h 65% 0.00in /  0mm
08:44 36.1 °F /  2.3 °C 25.8 °F /  -3.4 °C 30.23in /  1023.6hPa NE 5.0mph /  8km/h 10.0mph /  16.1km/h 66% 0.00in /  0mm
08:49 36.3 °F /  2.4 °C 26.0 °F /  -3.3 °C 30.22in /  1023.2hPa ENE 4.0mph /  6.4km/h 10.0mph /  16.1km/h 66% 0.00in /  0mm
08:54 36.3 °F /  2.4 °C 25.3 °F /  -3.7 °C 30.22in /  1023.2hPa ESE 4.0mph /  6.4km/h 10.0mph /  16.1km/h 64% 0.00in /  0mm
08:59 36.5 °F /  2.5 °C 25.8 °F /  -3.4 °C 30.22in /  1023.2hPa ENE 4.0mph /  6.4km/h 10.0mph /  16.1km/h 65% 0.00in /  0mm
09:04 36.6 °F /  2.6 °C 25.6 °F /  -3.6 °C 30.22in /  1023.2hPa East 5.0mph /  8km/h 13.0mph /  20.9km/h 64% 0.00in /  0mm
09:09 36.7 °F /  2.6 °C 25.3 °F /  -3.7 °C 30.22in /  1023.2hPa East 3.0mph /  4.8km/h 13.0mph /  20.9km/h 63% 0.00in /  0mm
09:14 37.0 °F /  2.8 °C 25.6 °F /  -3.6 °C 30.22in /  1023.2hPa East 3.0mph /  4.8km/h 8.0mph /  12.9km/h 63% 0.00in /  0mm
09:19 37.3 °F /  2.9 °C 26.2 °F /  -3.2 °C 30.22in /  1023.2hPa NE 3.0mph /  4.8km/h 9.0mph /  14.5km/h 64% 0.00in /  0mm
09:24 37.4 °F /  3 °C 25.6 °F /  -3.6 °C 30.22in /  1023.2hPa SE 6.0mph /  9.7km/h 13.0mph /  20.9km/h 62% 0.00in /  0mm
09:29 37.5 °F /  3.1 °C 25.7 °F /  -3.5 °C 30.21in /  1022.9hPa East 6.0mph /  9.7km/h 15.0mph /  24.1km/h 62% 0.00in /  0mm
09:34 37.9 °F /  3.3 °C 26.0 °F /  -3.3 °C 30.19in /  1022.2hPa East 6.0mph /  9.7km/h 15.0mph /  24.1km/h 62% 0.00in /  0mm
09:39 38.2 °F /  3.4 °C 26.3 °F /  -3.2 °C 30.18in /  1021.9hPa ENE 6.0mph /  9.7km/h 15.0mph /  24.1km/h 62% 0.00in /  0mm
09:44 38.9 °F /  3.8 °C 26.2 °F /  -3.2 °C 30.18in /  1021.9hPa ENE 6.0mph /  9.7km/h 14.0mph /  22.5km/h 60% 0.00in /  0mm
09:49 39.1 °F /  3.9 °C 26.8 °F /  -2.9 °C 30.19in /  1022.2hPa East 5.0mph /  8km/h 13.0mph /  20.9km/h 61% 0.00in /  0mm
09:54 39.2 °F /  4 °C 26.9 °F /  -2.8 °C 30.19in /  1022.2hPa East 6.0mph /  9.7km/h 14.0mph /  22.5km/h 61% 0.00in /  0mm
09:59 39.4 °F /  4.1 °C 26.7 °F /  -2.9 °C 30.18in /  1021.9hPa East 9.0mph /  14.5km/h 10.0mph /  16.1km/h 60% 0.00in /  0mm
10:04 39.3 °F /  4.1 °C 26.6 °F /  -3 °C 30.18in /  1021.9hPa NE 5.0mph /  8km/h 14.0mph /  22.5km/h 60% 0.00in /  0mm
10:09 39.4 °F /  4.1 °C 26.2 °F /  -3.2 °C 30.18in /  1021.9hPa East 3.0mph /  4.8km/h 12.0mph /  19.3km/h 59% 0.00in /  0mm
10:14 39.3 °F /  4.1 °C 26.6 °F /  -3 °C 30.18in /  1021.9hPa East 8.0mph /  12.9km/h 15.0mph /  24.1km/h 60% 0.00in /  0mm
10:19 39.3 °F /  4.1 °C 25.7 °F /  -3.5 °C 30.18in /  1021.9hPa East 7.0mph /  11.3km/h 13.0mph /  20.9km/h 58% 0.00in /  0mm
10:24 39.4 °F /  4.1 °C 26.2 °F /  -3.2 °C 30.18in /  1021.9hPa East 7.0mph /  11.3km/h 13.0mph /  20.9km/h 59% 0.00in /  0mm
10:29 39.5 °F /  4.2 °C 26.3 °F /  -3.2 °C 30.17in /  1021.6hPa ENE 7.0mph /  11.3km/h 15.0mph /  24.1km/h 59% 0.00in /  0mm
10:34 39.8 °F /  4.3 °C 26.6 °F /  -3 °C 30.17in /  1021.6hPa ENE 7.0mph /  11.3km/h 15.0mph /  24.1km/h 59% 0.00in /  0mm
10:39 40.2 °F /  4.6 °C 27.0 °F /  -2.8 °C 30.18in /  1021.9hPa ENE 6.0mph /  9.7km/h 13.0mph /  20.9km/h 59% 0.00in /  0mm
10:44 40.5 °F /  4.7 °C 26.9 °F /  -2.8 °C 30.19in /  1022.2hPa ENE 5.0mph /  8km/h 13.0mph /  20.9km/h 58% 0.00in /  0mm
10:49 40.7 °F /  4.8 °C 27.1 °F /  -2.7 °C 30.19in /  1022.2hPa ESE 8.0mph /  12.9km/h 12.0mph /  19.3km/h 58% 0.00in /  0mm
10:54 40.6 °F /  4.8 °C 27.0 °F /  -2.8 °C 30.19in /  1022.2hPa ENE 7.0mph /  11.3km/h 13.0mph /  20.9km/h 58% 0.00in /  0mm
10:59 40.7 °F /  4.8 °C 26.6 °F /  -3 °C 30.19in /  1022.2hPa ENE 7.0mph /  11.3km/h 17.0mph /  27.4km/h 57% 0.00in /  0mm
11:04 41.1 °F /  5.1 °C 27.0 °F /  -2.8 °C 30.20in /  1022.6hPa East 6.0mph /  9.7km/h 14.0mph /  22.5km/h 57% 0.00in /  0mm
11:09 41.1 °F /  5.1 °C 27.4 °F /  -2.6 °C 30.20in /  1022.6hPa NE 4.0mph /  6.4km/h 10.0mph /  16.1km/h 58% 0.00in /  0mm
11:14 41.6 °F /  5.3 °C 27.1 °F /  -2.7 °C 30.20in /  1022.6hPa East 6.0mph /  9.7km/h 10.0mph /  16.1km/h 56% 0.00in /  0mm
11:19 41.8 °F /  5.4 °C 27.2 °F /  -2.7 °C 30.21in /  1022.9hPa NNE 7.0mph /  11.3km/h 15.0mph /  24.1km/h 56% 0.00in /  0mm
11:24 41.8 °F /  5.4 °C 27.7 °F /  -2.4 °C 30.21in /  1022.9hPa NE 6.0mph /  9.7km/h 10.0mph /  16.1km/h 57% 0.00in /  0mm
11:29 41.9 °F /  5.5 °C 27.3 °F /  -2.6 °C 30.20in /  1022.6hPa ENE 5.0mph /  8km/h 13.0mph /  20.9km/h 56% 0.00in /  0mm
11:34 41.6 °F /  5.3 °C 27.1 °F /  -2.7 °C 30.20in /  1022.6hPa East 7.0mph /  11.3km/h 15.0mph /  24.1km/h 56% 0.00in /  0mm
11:39 41.8 °F /  5.4 °C 27.2 °F /  -2.7 °C 30.19in /  1022.2hPa East 7.0mph /  11.3km/h 15.0mph /  24.1km/h 56% 0.00in /  0mm
11:44 42.0 °F /  5.6 °C 27.4 °F /  -2.6 °C 30.19in /  1022.2hPa East 6.0mph /  9.7km/h 15.0mph /  24.1km/h 56% 0.00in /  0mm
11:49 42.2 °F /  5.7 °C 28.0 °F /  -2.2 °C 30.19in /  1022.2hPa East 6.0mph /  9.7km/h 14.0mph /  22.5km/h 57% 0.00in /  0mm
11:54 42.1 °F /  5.6 °C 27.5 °F /  -2.5 °C 30.18in /  1021.9hPa ENE 5.0mph /  8km/h 13.0mph /  20.9km/h 56% 0.00in /  0mm
11:59 41.9 °F /  5.5 °C 27.3 °F /  -2.6 °C 30.18in /  1021.9hPa East 5.0mph /  8km/h 13.0mph /  20.9km/h 56% 0.00in /  0mm
12:04 41.9 °F /  5.5 °C 27.8 °F /  -2.3 °C 30.17in /  1021.6hPa ENE 5.0mph /  8km/h 13.0mph /  20.9km/h 57% 0.00in /  0mm
12:09 41.9 °F /  5.5 °C 28.2 °F /  -2.1 °C 30.16in /  1021.2hPa ENE 3.0mph /  4.8km/h 9.0mph /  14.5km/h 58% 0.00in /  0mm
12:14 41.9 °F /  5.5 °C 27.8 °F /  -2.3 °C 30.16in /  1021.2hPa NE 4.0mph /  6.4km/h 9.0mph /  14.5km/h 57% 0.00in /  0mm
12:19 42.0 °F /  5.6 °C 27.9 °F /  -2.3 °C 30.16in /  1021.2hPa ENE 4.0mph /  6.4km/h 10.0mph /  16.1km/h 57% 0.00in /  0mm
12:24 42.2 °F /  5.7 °C 28.0 °F /  -2.2 °C 30.15in /  1020.9hPa NE 11.0mph /  17.7km/h 13.0mph /  20.9km/h 57% 0.00in /  0mm
12:29 42.3 °F /  5.7 °C 27.7 °F /  -2.4 °C 30.15in /  1020.9hPa ENE 4.0mph /  6.4km/h 13.0mph /  20.9km/h 56% 0.00in /  0mm
12:34 42.2 °F /  5.7 °C 27.2 °F /  -2.7 °C 30.15in /  1020.9hPa East 5.0mph /  8km/h 13.0mph /  20.9km/h 55% 0.00in /  0mm
12:39 42.2 °F /  5.7 °C 27.2 °F /  -2.7 °C 30.15in /  1020.9hPa East 5.0mph /  8km/h 13.0mph /  20.9km/h 55% 0.00in /  0mm
12:44 42.1 °F /  5.6 °C 27.1 °F /  -2.7 °C 30.15in /  1020.9hPa East 9.0mph /  14.5km/h 10.0mph /  16.1km/h 55% 0.00in /  0mm
12:49 42.0 °F /  5.6 °C 27.0 °F /  -2.8 °C 30.15in /  1020.9hPa ENE 8.0mph /  12.9km/h 14.0mph /  22.5km/h 55% 0.00in /  0mm
12:54 42.0 °F /  5.6 °C 27.4 °F /  -2.6 °C 30.15in /  1020.9hPa East 7.0mph /  11.3km/h 13.0mph /  20.9km/h 56% 0.00in /  0mm
12:59 42.1 °F /  5.6 °C 27.1 °F /  -2.7 °C 30.15in /  1020.9hPa ENE 5.0mph /  8km/h 13.0mph /  20.9km/h 55% 0.00in /  0mm
13:04 42.0 °F /  5.6 °C 27.0 °F /  -2.8 °C 30.15in /  1020.9hPa ENE 5.0mph /  8km/h 14.0mph /  22.5km/h 55% 0.00in /  0mm
13:09 41.9 °F /  5.5 °C 27.3 °F /  -2.6 °C 30.15in /  1020.9hPa ESE 9.0mph /  14.5km/h 15.0mph /  24.1km/h 56% 0.00in /  0mm
13:14 41.9 °F /  5.5 °C 27.3 °F /  -2.6 °C 30.14in /  1020.5hPa NE 6.0mph /  9.7km/h 11.0mph /  17.7km/h 56% 0.00in /  0mm
13:19 42.0 °F /  5.6 °C 27.4 °F /  -2.6 °C 30.14in /  1020.5hPa ENE 3.0mph /  4.8km/h 10.0mph /  16.1km/h 56% 0.00in /  0mm
13:24 42.0 °F /  5.6 °C 27.9 °F /  -2.3 °C 30.14in /  1020.5hPa ESE 9.0mph /  14.5km/h 9.0mph /  14.5km/h 57% 0.00in /  0mm
13:29 41.9 °F /  5.5 °C 27.8 °F /  -2.3 °C 30.14in /  1020.5hPa ENE 5.0mph /  8km/h 12.0mph /  19.3km/h 57% 0.00in /  0mm
13:34 42.0 °F /  5.6 °C 27.9 °F /  -2.3 °C 30.14in /  1020.5hPa ENE 6.0mph /  9.7km/h 13.0mph /  20.9km/h 57% 0.00in /  0mm
13:39 42.0 °F /  5.6 °C 28.3 °F /  -2.1 °C 30.14in /  1020.5hPa ENE 5.0mph /  8km/h 13.0mph /  20.9km/h 58% 0.00in /  0mm
13:44 42.2 °F /  5.7 °C 28.0 °F /  -2.2 °C 30.14in /  1020.5hPa ESE 7.0mph /  11.3km/h 11.0mph /  17.7km/h 57% 0.00in /  0mm
13:49 42.2 °F /  5.7 °C 28.0 °F /  -2.2 °C 30.14in /  1020.5hPa East 7.0mph /  11.3km/h 11.0mph /  17.7km/h 57% 0.00in /  0mm
13:54 42.3 °F /  5.7 °C 28.1 °F /  -2.2 °C 30.14in /  1020.5hPa East 2.0mph /  3.2km/h 10.0mph /  16.1km/h 57% 0.00in /  0mm
13:59 42.5 °F /  5.8 °C 28.8 °F /  -1.8 °C 30.13in /  1020.2hPa East 4.0mph /  6.4km/h 10.0mph /  16.1km/h 58% 0.00in /  0mm
14:04 42.5 °F /  5.8 °C 28.3 °F /  -2.1 °C 30.13in /  1020.2hPa East 4.0mph /  6.4km/h 11.0mph /  17.7km/h 57% 0.00in /  0mm
14:09 42.5 °F /  5.8 °C 28.3 °F /  -2.1 °C 30.13in /  1020.2hPa East 5.0mph /  8km/h 11.0mph /  17.7km/h 57% 0.00in /  0mm
14:14 42.5 °F /  5.8 °C 27.9 °F /  -2.3 °C 30.13in /  1020.2hPa ENE 4.0mph /  6.4km/h 8.0mph /  12.9km/h 56% 0.00in /  0mm
14:19 41.9 °F /  5.5 °C 29.8 °F /  -1.2 °C 30.13in /  1020.2hPa NE 1.0mph /  1.6km/h 15.0mph /  24.1km/h 62% 0.00in /  0mm
14:24 41.2 °F /  5.1 °C 29.9 °F /  -1.2 °C 30.13in /  1020.2hPa SSE 3.0mph /  4.8km/h 10.0mph /  16.1km/h 64% 0.00in /  0mm
14:29 40.6 °F /  4.8 °C 30.1 °F /  -1.1 °C 30.13in /  1020.2hPa ESE 5.0mph /  8km/h 13.0mph /  20.9km/h 66% 0.00in /  0mm
14:34 40.0 °F /  4.4 °C 31.4 °F /  -0.3 °C 30.13in /  1020.2hPa ESE 5.0mph /  8km/h 15.0mph /  24.1km/h 71% 0.00in /  0mm
14:39 39.6 °F /  4.2 °C 31.3 °F /  -0.4 °C 30.12in /  1019.9hPa South 2.0mph /  3.2km/h 13.0mph /  20.9km/h 72% 0.00in /  0mm
14:44 39.0 °F /  3.9 °C 31.7 °F /  -0.2 °C 30.12in /  1019.9hPa SSE 4.0mph /  6.4km/h 11.0mph /  17.7km/h 75% 0.00in /  0mm
14:49 38.0 °F /  3.3 °C 31.7 °F /  -0.2 °C 30.11in /  1019.5hPa SE 9.0mph /  14.5km/h 15.0mph /  24.1km/h 78% 0.01in /  0.25mm
14:54 37.3 °F /  2.9 °C 32.0 °F /  0 °C 30.10in /  1019.2hPa ESE 5.0mph /  8km/h 12.0mph /  19.3km/h 81% 0.01in /  0.25mm
14:59 36.8 °F /  2.7 °C 31.8 °F /  -0.1 °C 30.08in /  1018.5hPa ESE 6.0mph /  9.7km/h 13.0mph /  20.9km/h 82% 0.02in /  0.51mm
15:04 36.8 °F /  2.7 °C 32.4 °F /  0.2 °C 30.09in /  1018.8hPa ESE 5.0mph /  8km/h 13.0mph /  20.9km/h 84% 0.02in /  0.51mm
15:09 36.7 °F /  2.6 °C 32.6 °F /  0.3 °C 30.10in /  1019.2hPa ESE 4.0mph /  6.4km/h 11.0mph /  17.7km/h 85% 0.02in /  0.51mm
15:14 36.4 °F /  2.4 °C 32.3 °F /  0.2 °C 30.10in /  1019.2hPa ESE 5.0mph /  8km/h 12.0mph /  19.3km/h 85% 0.03in /  0.76mm
15:19 36.4 °F /  2.4 °C 32.6 °F /  0.3 °C 30.09in /  1018.8hPa ESE 4.0mph /  6.4km/h 12.0mph /  19.3km/h 86% 0.04in /  1.02mm
15:24 36.3 °F /  2.4 °C 32.5 °F /  0.3 °C 30.09in /  1018.8hPa East 7.0mph /  11.3km/h 10.0mph /  16.1km/h 86% 0.04in /  1.02mm
15:29 36.3 °F /  2.4 °C 32.8 °F /  0.4 °C 30.09in /  1018.8hPa SE 1.0mph /  1.6km/h 10.0mph /  16.1km/h 87% 0.04in /  1.02mm
15:34 36.4 °F /  2.4 °C 32.9 °F /  0.5 °C 30.09in /  1018.8hPa East 5.0mph /  8km/h 12.0mph /  19.3km/h 87% 0.04in /  1.02mm
15:39 36.4 °F /  2.4 °C 32.9 °F /  0.5 °C 30.10in /  1019.2hPa East 5.0mph /  8km/h 12.0mph /  19.3km/h 87% 0.04in /  1.02mm
15:44 36.5 °F /  2.5 °C 33.0 °F /  0.6 °C 30.09in /  1018.8hPa ENE 4.0mph /  6.4km/h 9.0mph /  14.5km/h 87% 0.04in /  1.02mm
15:49 36.7 °F /  2.6 °C 33.5 °F /  0.8 °C 30.08in /  1018.5hPa NE 2.0mph /  3.2km/h 14.0mph /  22.5km/h 88% 0.04in /  1.02mm
15:54 36.7 °F /  2.6 °C 33.5 °F /  0.8 °C 30.08in /  1018.5hPa ESE 2.0mph /  3.2km/h 8.0mph /  12.9km/h 88% 0.04in /  1.02mm
15:59 36.6 °F /  2.6 °C 33.1 °F /  0.6 °C 30.07in /  1018.2hPa NE 6.0mph /  9.7km/h 14.0mph /  22.5km/h 87% 0.03in /  0.76mm
16:04 36.8 °F /  2.7 °C 33.6 °F /  0.9 °C 30.06in /  1017.8hPa East 5.0mph /  8km/h 14.0mph /  22.5km/h 88% 0.03in /  0.76mm
16:09 36.9 °F /  2.7 °C 33.7 °F /  0.9 °C 30.05in /  1017.5hPa East 6.0mph /  9.7km/h 13.0mph /  20.9km/h 88% 0.04in /  1.02mm
16:14 37.0 °F /  2.8 °C 33.8 °F /  1 °C 30.05in /  1017.5hPa East 6.0mph /  9.7km/h 13.0mph /  20.9km/h 88% 0.03in /  0.76mm
16:19 37.1 °F /  2.8 °C 33.9 °F /  1.1 °C 30.04in /  1017.2hPa ENE 6.0mph /  9.7km/h 14.0mph /  22.5km/h 88% 0.02in /  0.51mm
16:24 37.2 °F /  2.9 °C 34.0 °F /  1.1 °C 30.06in /  1017.8hPa ENE 7.0mph /  11.3km/h 14.0mph /  22.5km/h 88% 0.02in /  0.51mm
16:29 37.2 °F /  2.9 °C 33.7 °F /  0.9 °C 30.05in /  1017.5hPa ENE 5.0mph /  8km/h 12.0mph /  19.3km/h 87% 0.02in /  0.51mm
16:34 37.3 °F /  2.9 °C 33.8 °F /  1 °C 30.04in /  1017.2hPa East 10.0mph /  16.1km/h 13.0mph /  20.9km/h 87% 0.02in /  0.51mm
16:39 37.5 °F /  3.1 °C 34.0 °F /  1.1 °C 30.05in /  1017.5hPa ENE 6.0mph /  9.7km/h 13.0mph /  20.9km/h 87% 0.02in /  0.51mm
16:44 37.7 °F /  3.2 °C 33.9 °F /  1.1 °C 30.03in /  1016.8hPa NE 5.0mph /  8km/h 12.0mph /  19.3km/h 86% 0.02in /  0.51mm
16:49 37.7 °F /  3.2 °C 33.9 °F /  1.1 °C 30.02in /  1016.5hPa ENE 4.0mph /  6.4km/h 14.0mph /  22.5km/h 86% 0.01in /  0.25mm
16:54 37.9 °F /  3.3 °C 34.1 °F /  1.2 °C 30.01in /  1016.1hPa ESE 7.0mph /  11.3km/h 11.0mph /  17.7km/h 86% 0.01in /  0.25mm
16:59 37.9 °F /  3.3 °C 33.8 °F /  1 °C 30.01in /  1016.1hPa ENE 4.0mph /  6.4km/h 15.0mph /  24.1km/h 85% 0.01in /  0.25mm
17:04 38.0 °F /  3.3 °C 33.9 °F /  1.1 °C 30.01in /  1016.1hPa ENE 8.0mph /  12.9km/h 15.0mph /  24.1km/h 85% 0.01in /  0.25mm
17:09 38.0 °F /  3.3 °C 33.9 °F /  1.1 °C 30.01in /  1016.1hPa ENE 6.0mph /  9.7km/h 15.0mph /  24.1km/h 85% 0.00in /  0mm
17:14 38.1 °F /  3.4 °C 34.0 °F /  1.1 °C 30.01in /  1016.1hPa ENE 6.0mph /  9.7km/h 13.0mph /  20.9km/h 85% 0.00in /  0mm
17:19 38.1 °F /  3.4 °C 34.0 °F /  1.1 °C 30.01in /  1016.1hPa ENE 6.0mph /  9.7km/h 14.0mph /  22.5km/h 85% 0.00in /  0mm
17:24 38.1 °F /  3.4 °C 33.7 °F /  0.9 °C 30.01in /  1016.1hPa ENE 6.0mph /  9.7km/h 16.0mph /  25.7km/h 84% 0.00in /  0mm
17:29 38.2 °F /  3.4 °C 33.8 °F /  1 °C 30.02in /  1016.5hPa ENE 6.0mph /  9.7km/h 16.0mph /  25.7km/h 84% 0.00in /  0mm
17:34 38.3 °F /  3.5 °C 33.9 °F /  1.1 °C 30.03in /  1016.8hPa NE 6.0mph /  9.7km/h 15.0mph /  24.1km/h 84% 0.00in /  0mm
17:39 38.5 °F /  3.6 °C 34.1 °F /  1.2 °C 30.02in /  1016.5hPa NE 3.0mph /  4.8km/h 10.0mph /  16.1km/h 84% 0.00in /  0mm
17:44 38.5 °F /  3.6 °C 34.1 °F /  1.2 °C 30.02in /  1016.5hPa ENE 4.0mph /  6.4km/h 11.0mph /  17.7km/h 84% 0.00in /  0mm
17:49 38.6 °F /  3.7 °C 34.2 °F /  1.2 °C 30.03in /  1016.8hPa NE 7.0mph /  11.3km/h 12.0mph /  19.3km/h 84% 0.00in /  0mm
17:54 38.6 °F /  3.7 °C 34.2 °F /  1.2 °C 30.03in /  1016.8hPa NE 4.0mph /  6.4km/h 9.0mph /  14.5km/h 84% 0.00in /  0mm
17:59 38.7 °F /  3.7 °C 34.3 °F /  1.3 °C 30.02in /  1016.5hPa East 3.0mph /  4.8km/h 11.0mph /  17.7km/h 84% 0.00in /  0mm
18:04 38.8 °F /  3.8 °C 34.4 °F /  1.3 °C 30.02in /  1016.5hPa ENE 9.0mph /  14.5km/h 15.0mph /  24.1km/h 84% 0.00in /  0mm
18:09 38.8 °F /  3.8 °C 34.1 °F /  1.2 °C 30.01in /  1016.1hPa ENE 8.0mph /  12.9km/h 14.0mph /  22.5km/h 83% 0.00in /  0mm
18:14 38.8 °F /  3.8 °C 34.4 °F /  1.3 °C 30.00in /  1015.8hPa ENE 7.0mph /  11.3km/h 14.0mph /  22.5km/h 84% 0.00in /  0mm
18:19 38.7 °F /  3.7 °C 34.3 °F /  1.3 °C 29.99in /  1015.5hPa ENE 5.0mph /  8km/h 11.0mph /  17.7km/h 84% 0.00in /  0mm
18:24 38.6 °F /  3.7 °C 34.2 °F /  1.2 °C 29.98in /  1015.1hPa ENE 7.0mph /  11.3km/h 14.0mph /  22.5km/h 84% 0.00in /  0mm
18:29 38.5 °F /  3.6 °C 34.1 °F /  1.2 °C 29.98in /  1015.1hPa ENE 8.0mph /  12.9km/h 14.0mph /  22.5km/h 84% 0.00in /  0mm
18:34 38.5 °F /  3.6 °C 34.1 °F /  1.2 °C 29.97in /  1014.8hPa ENE 7.0mph /  11.3km/h 15.0mph /  24.1km/h 84% 0.00in /  0mm
18:39 38.5 °F /  3.6 °C 34.1 °F /  1.2 °C 29.95in /  1014.1hPa NE 11.0mph /  17.7km/h 11.0mph /  17.7km/h 84% 0.00in /  0mm
18:44 38.4 °F /  3.6 °C 34.0 °F /  1.1 °C 29.94in /  1013.8hPa East 9.0mph /  14.5km/h 16.0mph /  25.7km/h 84% 0.00in /  0mm
18:49 38.4 °F /  3.6 °C 34.0 °F /  1.1 °C 29.95in /  1014.1hPa ENE 7.0mph /  11.3km/h 16.0mph /  25.7km/h 84% 0.00in /  0mm
18:54 38.4 °F /  3.6 °C 34.0 °F /  1.1 °C 29.96in /  1014.4hPa ENE 7.0mph /  11.3km/h 16.0mph /  25.7km/h 84% 0.00in /  0mm
18:59 38.4 °F /  3.6 °C 34.0 °F /  1.1 °C 29.98in /  1015.1hPa ENE 6.0mph /  9.7km/h 16.0mph /  25.7km/h 84% 0.00in /  0mm
19:04 38.4 °F /  3.6 °C 34.0 °F /  1.1 °C 29.98in /  1015.1hPa East 5.0mph /  8km/h 12.0mph /  19.3km/h 84% 0.00in /  0mm
19:09 38.4 °F /  3.6 °C 34.3 °F /  1.3 °C 29.99in /  1015.5hPa East 8.0mph /  12.9km/h 12.0mph /  19.3km/h 85% 0.00in /  0mm
19:14 38.4 °F /  3.6 °C 34.3 °F /  1.3 °C 29.99in /  1015.5hPa NNE 4.0mph /  6.4km/h 10.0mph /  16.1km/h 85% 0.00in /  0mm
19:19 38.4 °F /  3.6 °C 34.3 °F /  1.3 °C 30.00in /  1015.8hPa East 5.0mph /  8km/h 10.0mph /  16.1km/h 85% 0.00in /  0mm
19:24 38.4 °F /  3.6 °C 34.3 °F /  1.3 °C 29.98in /  1015.1hPa ENE 5.0mph /  8km/h 10.0mph /  16.1km/h 85% 0.00in /  0mm
19:29 38.4 °F /  3.6 °C 34.3 °F /  1.3 °C 29.99in /  1015.5hPa ENE 5.0mph /  8km/h 11.0mph /  17.7km/h 85% 0.01in /  0.25mm
19:34 38.3 °F /  3.5 °C 34.5 °F /  1.4 °C 30.01in /  1016.1hPa ENE 5.0mph /  8km/h 11.0mph /  17.7km/h 86% 0.01in /  0.25mm
19:39 38.3 °F /  3.5 °C 34.5 °F /  1.4 °C 30.01in /  1016.1hPa ENE 4.0mph /  6.4km/h 8.0mph /  12.9km/h 86% 0.02in /  0.51mm
19:44 38.3 °F /  3.5 °C 34.8 °F /  1.6 °C 30.02in /  1016.5hPa ENE 3.0mph /  4.8km/h 8.0mph /  12.9km/h 87% 0.04in /  1.02mm
19:49 38.2 °F /  3.4 °C 34.7 °F /  1.5 °C 30.00in /  1015.8hPa NE 4.0mph /  6.4km/h 9.0mph /  14.5km/h 87% 0.06in /  1.52mm
19:54 38.1 °F /  3.4 °C 34.6 °F /  1.4 °C 29.99in /  1015.5hPa ENE 4.0mph /  6.4km/h 12.0mph /  19.3km/h 87% 0.08in /  2.03mm
19:59 38.0 °F /  3.3 °C 34.5 °F /  1.4 °C 29.98in /  1015.1hPa East 3.0mph /  4.8km/h 11.0mph /  17.7km/h 87% 0.09in /  2.29mm
20:04 37.9 °F /  3.3 °C 34.7 °F /  1.5 °C 29.98in /  1015.1hPa ENE 3.0mph /  4.8km/h 10.0mph /  16.1km/h 88% 0.10in /  2.54mm
20:09 37.9 °F /  3.3 °C 34.7 °F /  1.5 °C 29.99in /  1015.5hPa NE 5.0mph /  8km/h 9.0mph /  14.5km/h 88% 0.11in /  2.79mm
20:14 37.8 °F /  3.2 °C 34.6 °F /  1.4 °C 29.98in /  1015.1hPa NE 6.0mph /  9.7km/h 12.0mph /  19.3km/h 88% 0.11in /  2.79mm
20:19 37.8 °F /  3.2 °C 34.6 °F /  1.4 °C 29.97in /  1014.8hPa ENE 5.0mph /  8km/h 12.0mph /  19.3km/h 88% 0.12in /  3.05mm
20:24 37.7 °F /  3.2 °C 34.8 °F /  1.6 °C 29.98in /  1015.1hPa ENE 5.0mph /  8km/h 11.0mph /  17.7km/h 89% 0.14in /  3.56mm
20:29 37.7 °F /  3.2 °C 34.8 °F /  1.6 °C 29.96in /  1014.4hPa ENE 5.0mph /  8km/h 12.0mph /  19.3km/h 89% 0.14in /  3.56mm
20:34 37.7 °F /  3.2 °C 34.8 °F /  1.6 °C 29.98in /  1015.1hPa ENE 5.0mph /  8km/h 12.0mph /  19.3km/h 89% 0.15in /  3.81mm
20:39 37.6 °F /  3.1 °C 34.7 °F /  1.5 °C 29.98in /  1015.1hPa ENE 4.0mph /  6.4km/h 8.0mph /  12.9km/h 89% 0.15in /  3.81mm
20:44 37.6 °F /  3.1 °C 34.7 °F /  1.5 °C 29.98in /  1015.1hPa East 4.0mph /  6.4km/h 10.0mph /  16.1km/h 89% 0.13in /  3.3mm
20:49 37.6 °F /  3.1 °C 34.7 °F /  1.5 °C 29.97in /  1014.8hPa NE 6.0mph /  9.7km/h 9.0mph /  14.5km/h 89% 0.12in /  3.05mm
20:54 37.6 °F /  3.1 °C 34.7 °F /  1.5 °C 29.96in /  1014.4hPa NE 4.0mph /  6.4km/h 11.0mph /  17.7km/h 89% 0.11in /  2.79mm
20:59 37.6 °F /  3.1 °C 34.9 °F /  1.6 °C 29.97in /  1014.8hPa ENE 3.0mph /  4.8km/h 11.0mph /  17.7km/h 90% 0.11in /  2.79mm
21:04 37.7 °F /  3.2 °C 35.0 °F /  1.7 °C 29.97in /  1014.8hPa ENE 4.0mph /  6.4km/h 9.0mph /  14.5km/h 90% 0.10in /  2.54mm
21:09 37.6 °F /  3.1 °C 34.9 °F /  1.6 °C 29.97in /  1014.8hPa NNE 2.0mph /  3.2km/h 10.0mph /  16.1km/h 90% 0.09in /  2.29mm
21:14 37.6 °F /  3.1 °C 34.9 °F /  1.6 °C 29.97in /  1014.8hPa NNE 5.0mph /  8km/h 13.0mph /  20.9km/h 90% 0.10in /  2.54mm
21:19 37.6 °F /  3.1 °C 34.9 °F /  1.6 °C 29.97in /  1014.8hPa NE 8.0mph /  12.9km/h 12.0mph /  19.3km/h 90% 0.09in /  2.29mm
21:24 37.5 °F /  3.1 °C 34.8 °F /  1.6 °C 29.97in /  1014.8hPa NE 7.0mph /  11.3km/h 13.0mph /  20.9km/h 90% 0.07in /  1.78mm
21:29 37.5 °F /  3.1 °C 34.8 °F /  1.6 °C 29.97in /  1014.8hPa NE 8.0mph /  12.9km/h 14.0mph /  22.5km/h 90% 0.06in /  1.52mm
21:34 37.4 °F /  3 °C 34.7 °F /  1.5 °C 29.97in /  1014.8hPa NE 8.0mph /  12.9km/h 14.0mph /  22.5km/h 90% 0.05in /  1.27mm
21:40 37.4 °F /  3 °C 34.7 °F /  1.5 °C 29.97in /  1014.8hPa NE 6.0mph /  9.7km/h 13.0mph /  20.9km/h 90% 0.04in /  1.02mm
21:45 37.2 °F /  2.9 °C 34.5 °F /  1.4 °C 29.96in /  1014.4hPa NE 9.0mph /  14.5km/h 14.0mph /  22.5km/h 90% 0.04in /  1.02mm
21:59 37.2 °F /  2.9 °C 34.5 °F /  1.4 °C 29.95in /  1014.1hPa NE 7.0mph /  11.3km/h 14.0mph /  22.5km/h 90% 0.03in /  0.76mm
22:05 37.3 °F /  2.9 °C 34.6 °F /  1.4 °C 29.95in /  1014.1hPa NE 12.0mph /  19.3km/h 17.0mph /  27.4km/h 90% 0.00in /  0mm
22:10 37.4 °F /  3 °C 34.7 °F /  1.5 °C 29.94in /  1013.8hPa ENE 8.0mph /  12.9km/h 17.0mph /  27.4km/h 90% 0.00in /  0mm
22:15 37.4 °F /  3 °C 34.7 °F /  1.5 °C 29.94in /  1013.8hPa NE 7.0mph /  11.3km/h 17.0mph /  27.4km/h 90% 0.00in /  0mm
22:20 37.5 °F /  3.1 °C 34.8 °F /  1.6 °C 29.93in /  1013.4hPa NE 8.0mph /  12.9km/h 11.0mph /  17.7km/h 90% 0.00in /  0mm
22:25 37.5 °F /  3.1 °C 34.8 °F /  1.6 °C 29.93in /  1013.4hPa ENE 8.0mph /  12.9km/h 11.0mph /  17.7km/h 90% 0.00in /  0mm
22:30 37.5 °F /  3.1 °C 34.6 °F /  1.4 °C 29.93in /  1013.4hPa NE 3.0mph /  4.8km/h 17.0mph /  27.4km/h 89% 0.00in /  0mm
22:35 37.6 °F /  3.1 °C 34.7 °F /  1.5 °C 29.94in /  1013.8hPa East 7.0mph /  11.3km/h 11.0mph /  17.7km/h 89% 0.00in /  0mm
22:40 37.7 °F /  3.2 °C 34.8 °F /  1.6 °C 29.94in /  1013.8hPa ENE 9.0mph /  14.5km/h 13.0mph /  20.9km/h 89% 0.00in /  0mm
22:45 37.7 °F /  3.2 °C 34.8 °F /  1.6 °C 29.95in /  1014.1hPa ENE 5.0mph /  8km/h 13.0mph /  20.9km/h 89% 0.00in /  0mm
22:50 37.8 °F /  3.2 °C 34.8 °F /  1.6 °C 29.94in /  1013.8hPa ENE 6.0mph /  9.7km/h 15.0mph /  24.1km/h 89% 0.00in /  0mm
22:55 37.8 °F /  3.2 °C 34.8 °F /  1.6 °C 29.94in /  1013.8hPa ENE 6.0mph /  9.7km/h 15.0mph /  24.1km/h 89% 0.00in /  0mm
23:00 37.9 °F /  3.3 °C 34.9 °F /  1.6 °C 29.93in /  1013.4hPa ENE 5.0mph /  8km/h 11.0mph /  17.7km/h 89% 0.00in /  0mm
23:05 37.9 °F /  3.3 °C 34.9 °F /  1.6 °C 29.93in /  1013.4hPa ENE 6.0mph /  9.7km/h 11.0mph /  17.7km/h 89% 0.00in /  0mm
23:10 37.9 °F /  3.3 °C 34.9 °F /  1.6 °C 29.94in /  1013.8hPa NE 6.0mph /  9.7km/h 12.0mph /  19.3km/h 89% 0.00in /  0mm
23:15 37.9 °F /  3.3 °C 34.7 °F /  1.5 °C 29.95in /  1014.1hPa ENE 10.0mph /  16.1km/h 13.0mph /  20.9km/h 88% 0.00in /  0mm
23:20 37.9 °F /  3.3 °C 34.7 °F /  1.5 °C 29.94in /  1013.8hPa NE 9.0mph /  14.5km/h 14.0mph /  22.5km/h 88% 0.00in /  0mm
23:25 38.0 °F /  3.3 °C 34.8 °F /  1.6 °C 29.92in /  1013.1hPa NE 7.0mph /  11.3km/h 15.0mph /  24.1km/h 88% 0.00in /  0mm
23:30 38.0 °F /  3.3 °C 34.8 °F /  1.6 °C 29.88in /  1011.7hPa ENE 5.0mph /  8km/h 18.0mph /  29km/h 88% 0.00in /  0mm
23:35 37.9 °F /  3.3 °C 34.7 °F /  1.5 °C 29.86in /  1011.1hPa ENE 9.0mph /  14.5km/h 17.0mph /  27.4km/h 88% 0.00in /  0mm
23:40 37.9 °F /  3.3 °C 34.7 °F /  1.5 °C 29.85in /  1010.7hPa ESE 8.0mph /  12.9km/h 17.0mph /  27.4km/h 88% 0.00in /  0mm
23:45 37.8 °F /  3.2 °C 34.6 °F /  1.4 °C 29.84in /  1010.4hPa SE 9.0mph /  14.5km/h 19.0mph /  30.6km/h 88% 0.00in /  0mm
23:50 37.7 °F /  3.2 °C 34.5 °F /  1.4 °C 29.85in /  1010.7hPa SE 10.0mph /  16.1km/h 18.0mph /  29km/h 88% 0.00in /  0mm
23:55 37.7 °F /  3.2 °C 34.5 °F /  1.4 °C 29.85in /  1010.7hPa East 8.0mph /  12.9km/h 18.0mph /  29km/h 88% 0.00in /  0mm
Buffalo, New York, USA
Compliments of Weather Underground - 2.5 mb